sensor_id;sensor_type;location;lat;lon;timestamp;pressure;altitude;pressure_sealevel;temperature;humidity
7940;BME280;4015;48.888;9.226;2024-03-08T00:01:52;156108.00;;;3.41;84.63
7940;BME280;4015;48.888;9.226;2024-03-08T00:04:18;156074.97;;;3.28;84.90
7940;BME280;4015;48.888;9.226;2024-03-08T00:06:43;156036.81;;;3.12;85.02
7940;BME280;4015;48.888;9.226;2024-03-08T00:09:11;156019.00;;;3.05;85.86
7940;BME280;4015;48.888;9.226;2024-03-08T00:11:36;156030.47;;;3.10;85.51
7940;BME280;4015;48.888;9.226;2024-03-08T00:14:02;156003.75;;;2.99;85.22
7940;BME280;4015;48.888;9.226;2024-03-08T00:16:27;155979.66;;;2.89;85.49
7940;BME280;4015;48.888;9.226;2024-03-08T00:18:52;155992.31;;;2.94;85.47
7940;BME280;4015;48.888;9.226;2024-03-08T00:21:18;156007.56;;;3.01;85.58
7940;BME280;4015;48.888;9.226;2024-03-08T00:23:43;156001.22;;;2.98;85.81
7940;BME280;4015;48.888;9.226;2024-03-08T00:26:08;156016.47;;;3.04;85.65
7940;BME280;4015;48.888;9.226;2024-03-08T00:28:34;155996.16;;;2.96;85.48
7940;BME280;4015;48.888;9.226;2024-03-08T00:31:00;155984.72;;;2.91;86.04
7940;BME280;4015;48.888;9.226;2024-03-08T00:33:26;155963.09;;;2.83;86.01
7940;BME280;4015;48.888;9.226;2024-03-08T00:35:53;155950.41;;;2.78;86.22
7940;BME280;4015;48.888;9.226;2024-03-08T00:38:18;155942.75;;;2.75;86.30
7940;BME280;4015;48.888;9.226;2024-03-08T00:40:44;155936.44;;;2.72;86.43
7940;BME280;4015;48.888;9.226;2024-03-08T00:43:09;155933.91;;;2.71;85.80
7940;BME280;4015;48.888;9.226;2024-03-08T00:45:34;155916.06;;;2.64;85.97
7940;BME280;4015;48.888;9.226;2024-03-08T00:48:00;155905.94;;;2.60;86.77
7940;BME280;4015;48.888;9.226;2024-03-08T00:50:25;155914.81;;;2.63;86.44
7940;BME280;4015;48.888;9.226;2024-03-08T00:52:50;155921.19;;;2.66;86.49
7940;BME280;4015;48.888;9.226;2024-03-08T00:55:16;155950.41;;;2.78;86.47
7940;BME280;4015;48.888;9.226;2024-03-08T00:57:42;155946.56;;;2.76;86.55
7940;BME280;4015;48.888;9.226;2024-03-08T01:00:07;155977.06;;;2.88;86.38
7940;BME280;4015;48.888;9.226;2024-03-08T01:02:37;155961.81;;;2.82;86.17
7940;BME280;4015;48.888;9.226;2024-03-08T01:05:02;155958.00;;;2.81;86.60
7940;BME280;4015;48.888;9.226;2024-03-08T01:07:29;155950.41;;;2.78;86.85
7940;BME280;4015;48.888;9.226;2024-03-08T01:09:55;155970.72;;;2.86;86.85
7940;BME280;4015;48.888;9.226;2024-03-08T01:12:20;155975.78;;;2.88;85.98
7940;BME280;4015;48.888;9.226;2024-03-08T01:14:47;155959.28;;;2.81;86.38
7940;BME280;4015;48.888;9.226;2024-03-08T01:17:12;155958.00;;;2.81;85.96
7940;BME280;4015;48.888;9.226;2024-03-08T01:19:38;155958.00;;;2.81;86.74
7940;BME280;4015;48.888;9.226;2024-03-08T01:22:03;155955.47;;;2.80;85.79
7940;BME280;4015;48.888;9.226;2024-03-08T01:24:29;155914.81;;;2.63;86.26
7940;BME280;4015;48.888;9.226;2024-03-08T01:26:54;155867.81;;;2.44;86.51
7940;BME280;4015;48.888;9.226;2024-03-08T01:29:19;155850.03;;;2.37;86.85
7940;BME280;4015;48.888;9.226;2024-03-08T01:31:45;155830.97;;;2.30;86.64
7940;BME280;4015;48.888;9.226;2024-03-08T01:34:10;155813.22;;;2.23;86.40
7940;BME280;4015;48.888;9.226;2024-03-08T01:36:35;155787.78;;;2.12;87.39
7940;BME280;4015;48.888;9.226;2024-03-08T01:39:02;155800.50;;;2.17;87.25
7940;BME280;4015;48.888;9.226;2024-03-08T01:41:33;155795.44;;;2.15;87.65
7940;BME280;4015;48.888;9.226;2024-03-08T01:43:58;155823.38;;;2.27;87.29
7940;BME280;4015;48.888;9.226;2024-03-08T01:46:24;155800.50;;;2.17;87.30
7940;BME280;4015;48.888;9.226;2024-03-08T01:48:49;155754.78;;;1.99;87.01
7940;BME280;4015;48.888;9.226;2024-03-08T01:51:15;155729.41;;;1.89;88.38
7940;BME280;4015;48.888;9.226;2024-03-08T01:53:42;155728.09;;;1.88;87.70
7940;BME280;4015;48.888;9.226;2024-03-08T01:56:08;155733.22;;;1.91;87.05
7940;BME280;4015;48.888;9.226;2024-03-08T01:58:34;155717.97;;;1.84;87.83
7940;BME280;4015;48.888;9.226;2024-03-08T02:01:01;155691.28;;;1.74;87.83
7940;BME280;4015;48.888;9.226;2024-03-08T02:03:29;155698.94;;;1.77;87.62
7940;BME280;4015;48.888;9.226;2024-03-08T02:05:56;155690.03;;;1.73;88.00
7940;BME280;4015;48.888;9.226;2024-03-08T02:08:23;155702.72;;;1.78;88.88
7940;BME280;4015;48.888;9.226;2024-03-08T02:10:49;155711.59;;;1.82;88.14
7940;BME280;4015;48.888;9.226;2024-03-08T02:13:15;155696.34;;;1.76;87.91
7940;BME280;4015;48.888;9.226;2024-03-08T02:15:56;155706.53;;;1.80;87.19
7940;BME280;4015;48.888;9.226;2024-03-08T02:18:23;155705.25;;;1.79;87.73
7940;BME280;4015;48.888;9.226;2024-03-08T02:20:59;155714.16;;;1.83;87.86
7940;BME280;4015;48.888;9.226;2024-03-08T02:23:25;155709.06;;;1.81;87.18
7940;BME280;4015;48.888;9.226;2024-03-08T02:25:51;155690.03;;;1.73;87.63
7940;BME280;4015;48.888;9.226;2024-03-08T02:28:18;155705.25;;;1.79;87.20
7940;BME280;4015;48.888;9.226;2024-03-08T02:30:46;155704.00;;;1.79;87.13
7940;BME280;4015;48.888;9.226;2024-03-08T02:33:15;155671.00;;;1.66;87.41
7940;BME280;4015;48.888;9.226;2024-03-08T02:35:44;155665.94;;;1.64;87.53
7940;BME280;4015;48.888;9.226;2024-03-08T02:38:13;155667.19;;;1.64;87.80
7940;BME280;4015;48.888;9.226;2024-03-08T02:40:42;155669.72;;;1.65;87.72
7940;BME280;4015;48.888;9.226;2024-03-08T02:43:08;155665.94;;;1.64;88.17
7940;BME280;4015;48.888;9.226;2024-03-08T02:45:33;155681.13;;;1.70;87.92
7940;BME280;4015;48.888;9.226;2024-03-08T02:48:00;155684.97;;;1.71;87.63
7940;BME280;4015;48.888;9.226;2024-03-08T02:50:25;155683.69;;;1.71;87.38
7940;BME280;4015;48.888;9.226;2024-03-08T02:52:51;155697.66;;;1.76;87.22
7940;BME280;4015;48.888;9.226;2024-03-08T02:55:16;155659.56;;;1.61;87.73
7940;BME280;4015;48.888;9.226;2024-03-08T02:57:42;155655.75;;;1.59;87.79
7940;BME280;4015;48.888;9.226;2024-03-08T03:00:09;155646.84;;;1.56;87.90
7940;BME280;4015;48.888;9.226;2024-03-08T03:02:34;155638.00;;;1.52;87.61
7940;BME280;4015;48.888;9.226;2024-03-08T03:05:00;155645.59;;;1.55;88.03
7940;BME280;4015;48.888;9.226;2024-03-08T03:07:30;155659.56;;;1.61;87.41
7940;BME280;4015;48.888;9.226;2024-03-08T03:09:55;155632.88;;;1.50;87.42
7940;BME280;4015;48.888;9.226;2024-03-08T03:12:20;155643.06;;;1.54;87.89
7940;BME280;4015;48.888;9.226;2024-03-08T03:14:46;155653.22;;;1.58;87.32
7940;BME280;4015;48.888;9.226;2024-03-08T03:17:12;155621.50;;;1.46;87.69
7940;BME280;4015;48.888;9.226;2024-03-08T03:19:40;155608.78;;;1.41;88.02
7940;BME280;4015;48.888;9.226;2024-03-08T03:22:05;155611.31;;;1.42;88.04
7940;BME280;4015;48.888;9.226;2024-03-08T03:24:32;155607.53;;;1.40;87.50
7940;BME280;4015;48.888;9.226;2024-03-08T03:26:58;155612.59;;;1.42;87.21
7940;BME280;4015;48.888;9.226;2024-03-08T03:29:24;155621.50;;;1.46;86.94
7940;BME280;4015;48.888;9.226;2024-03-08T03:31:50;155606.25;;;1.40;87.72
7940;BME280;4015;48.888;9.226;2024-03-08T03:34:16;155580.84;;;1.29;87.41
7940;BME280;4015;48.888;9.226;2024-03-08T03:36:41;155591.03;;;1.33;87.85
7940;BME280;4015;48.888;9.226;2024-03-08T03:39:11;155593.56;;;1.34;87.98
7940;BME280;4015;48.888;9.226;2024-03-08T03:41:38;155587.19;;;1.32;87.53
7940;BME280;4015;48.888;9.226;2024-03-08T03:44:04;155572.00;;;1.26;87.77
7940;BME280;4015;48.888;9.226;2024-03-08T03:46:32;155585.91;;;1.31;88.09
7940;BME280;4015;48.888;9.226;2024-03-08T03:48:58;155584.66;;;1.31;87.36
7940;BME280;4015;48.888;9.226;2024-03-08T03:51:23;155551.66;;;1.18;87.46
7940;BME280;4015;48.888;9.226;2024-03-08T03:53:48;155542.81;;;1.14;88.30
7940;BME280;4015;48.888;9.226;2024-03-08T03:56:14;155549.13;;;1.17;88.63
7940;BME280;4015;48.888;9.226;2024-03-08T03:58:39;155550.38;;;1.17;87.92
7940;BME280;4015;48.888;9.226;2024-03-08T04:01:05;155531.38;;;1.10;88.06
7940;BME280;4015;48.888;9.226;2024-03-08T04:03:30;155544.06;;;1.15;88.54
7940;BME280;4015;48.888;9.226;2024-03-08T04:05:55;155523.72;;;1.06;88.57
7940;BME280;4015;48.888;9.226;2024-03-08T04:08:21;155495.84;;;0.95;88.61
7940;BME280;4015;48.888;9.226;2024-03-08T04:10:46;155507.22;;;1.00;88.56
7940;BME280;4015;48.888;9.226;2024-03-08T04:13:11;155511.06;;;1.01;88.41
7940;BME280;4015;48.888;9.226;2024-03-08T04:15:37;155517.41;;;1.04;88.39
7940;BME280;4015;48.888;9.226;2024-03-08T04:18:03;155508.50;;;1.00;88.05
7940;BME280;4015;48.888;9.226;2024-03-08T04:20:28;155484.41;;;0.91;87.65
7940;BME280;4015;48.888;9.226;2024-03-08T04:22:54;155495.84;;;0.95;87.83
7940;BME280;4015;48.888;9.226;2024-03-08T04:25:20;155497.09;;;0.96;88.42
7940;BME280;4015;48.888;9.226;2024-03-08T04:27:45;155503.44;;;0.98;88.05
7940;BME280;4015;48.888;9.226;2024-03-08T04:30:12;155492.00;;;0.94;88.05
7940;BME280;4015;48.888;9.226;2024-03-08T04:32:37;155483.16;;;0.90;88.27
7940;BME280;4015;48.888;9.226;2024-03-08T04:35:03;155493.25;;;0.94;88.37
7940;BME280;4015;48.888;9.226;2024-03-08T04:37:29;155526.31;;;1.07;88.53
7940;BME280;4015;48.888;9.226;2024-03-08T04:39:57;155517.41;;;1.04;88.35
7940;BME280;4015;48.888;9.226;2024-03-08T04:42:23;155516.13;;;1.03;87.90
7940;BME280;4015;48.888;9.226;2024-03-08T04:44:50;155521.19;;;1.05;88.31
7940;BME280;4015;48.888;9.226;2024-03-08T04:47:15;155526.31;;;1.07;87.85
7940;BME280;4015;48.888;9.226;2024-03-08T04:49:43;155517.41;;;1.04;88.23
7940;BME280;4015;48.888;9.226;2024-03-08T04:52:08;155518.66;;;1.04;87.66
7940;BME280;4015;48.888;9.226;2024-03-08T04:54:34;155523.72;;;1.06;87.28
7940;BME280;4015;48.888;9.226;2024-03-08T04:56:59;155513.59;;;1.02;87.24
7940;BME280;4015;48.888;9.226;2024-03-08T04:59:26;155509.81;;;1.01;87.70
7940;BME280;4015;48.888;9.226;2024-03-08T05:01:51;155536.44;;;1.12;88.17
7940;BME280;4015;48.888;9.226;2024-03-08T05:04:17;155521.19;;;1.05;87.35
7940;BME280;4015;48.888;9.226;2024-03-08T05:06:42;155478.09;;;0.88;88.15
7940;BME280;4015;48.888;9.226;2024-03-08T05:09:07;155466.66;;;0.84;88.47
7940;BME280;4015;48.888;9.226;2024-03-08T05:11:45;155472.97;;;0.86;87.73
7940;BME280;4015;48.888;9.226;2024-03-08T05:14:11;155465.38;;;0.83;87.77
7940;BME280;4015;48.888;9.226;2024-03-08T05:16:42;155465.38;;;0.83;87.58
7940;BME280;4015;48.888;9.226;2024-03-08T05:19:07;155465.38;;;0.83;87.76
7940;BME280;4015;48.888;9.226;2024-03-08T05:21:33;155465.38;;;0.83;87.34
7940;BME280;4015;48.888;9.226;2024-03-08T05:23:58;155465.38;;;0.83;87.47
7940;BME280;4015;48.888;9.226;2024-03-08T05:26:23;155486.94;;;0.92;87.83
7940;BME280;4015;48.888;9.226;2024-03-08T05:28:48;155499.63;;;0.97;87.61
7940;BME280;4015;48.888;9.226;2024-03-08T05:31:20;155479.34;;;0.89;87.19
7940;BME280;4015;48.888;9.226;2024-03-08T05:33:49;155483.16;;;0.90;87.98
7940;BME280;4015;48.888;9.226;2024-03-08T05:36:14;155485.69;;;0.91;87.73
7940;BME280;4015;48.888;9.226;2024-03-08T05:38:42;155485.69;;;0.91;89.04
7940;BME280;4015;48.888;9.226;2024-03-08T05:41:08;155494.59;;;0.95;88.42
7940;BME280;4015;48.888;9.226;2024-03-08T05:43:34;155505.97;;;0.99;88.95
7940;BME280;4015;48.888;9.226;2024-03-08T05:45:59;155507.22;;;1.00;88.71
7940;BME280;4015;48.888;9.226;2024-03-08T05:48:24;155528.84;;;1.08;88.92
7940;BME280;4015;48.888;9.226;2024-03-08T05:50:50;155519.94;;;1.05;88.87
7940;BME280;4015;48.888;9.226;2024-03-08T05:53:15;155523.72;;;1.06;88.22
7940;BME280;4015;48.888;9.226;2024-03-08T05:55:40;155538.97;;;1.13;88.20
7940;BME280;4015;48.888;9.226;2024-03-08T05:58:06;155550.38;;;1.17;88.56
7940;BME280;4015;48.888;9.226;2024-03-08T06:00:33;155546.59;;;1.16;88.18
7940;BME280;4015;48.888;9.226;2024-03-08T06:02:59;155523.72;;;1.06;89.15
7940;BME280;4015;48.888;9.226;2024-03-08T06:05:24;155552.91;;;1.18;88.12
7940;BME280;4015;48.888;9.226;2024-03-08T06:07:49;155550.38;;;1.17;88.37
7940;BME280;4015;48.888;9.226;2024-03-08T06:10:15;155528.84;;;1.08;87.85
7940;BME280;4015;48.888;9.226;2024-03-08T06:12:42;155537.69;;;1.12;88.18
7940;BME280;4015;48.888;9.226;2024-03-08T06:15:08;155560.56;;;1.21;88.29
7940;BME280;4015;48.888;9.226;2024-03-08T06:17:35;155579.59;;;1.29;88.22
7940;BME280;4015;48.888;9.226;2024-03-08T06:20:01;155592.28;;;1.34;87.92
7940;BME280;4015;48.888;9.226;2024-03-08T06:22:26;155625.28;;;1.47;87.97
7940;BME280;4015;48.888;9.226;2024-03-08T06:24:52;155634.16;;;1.51;87.91
7940;BME280;4015;48.888;9.226;2024-03-08T06:27:19;155653.22;;;1.58;87.74
7940;BME280;4015;48.888;9.226;2024-03-08T06:29:44;155681.13;;;1.70;87.45
7940;BME280;4015;48.888;9.226;2024-03-08T06:32:09;155706.53;;;1.80;87.44
7940;BME280;4015;48.888;9.226;2024-03-08T06:34:35;155743.34;;;1.95;87.28
7940;BME280;4015;48.888;9.226;2024-03-08T06:37:00;155733.22;;;1.91;87.03
7940;BME280;4015;48.888;9.226;2024-03-08T06:39:27;155772.53;;;2.06;86.76
7940;BME280;4015;48.888;9.226;2024-03-08T06:41:53;155804.28;;;2.19;86.80
7940;BME280;4015;48.888;9.226;2024-03-08T06:44:19;155830.97;;;2.30;86.27
7940;BME280;4015;48.888;9.226;2024-03-08T06:46:47;155855.13;;;2.39;86.23
7940;BME280;4015;48.888;9.226;2024-03-08T06:49:13;155861.47;;;2.42;85.67
7940;BME280;4015;48.888;9.226;2024-03-08T06:51:39;155895.75;;;2.56;85.61
7940;BME280;4015;48.888;9.226;2024-03-08T06:54:06;155909.72;;;2.61;85.41
7940;BME280;4015;48.888;9.226;2024-03-08T06:56:37;155922.44;;;2.66;84.93
7940;BME280;4015;48.888;9.226;2024-03-08T06:59:02;155936.44;;;2.72;84.70
7940;BME280;4015;48.888;9.226;2024-03-08T07:01:28;155963.09;;;2.83;84.17
7940;BME280;4015;48.888;9.226;2024-03-08T07:03:57;155965.66;;;2.84;83.97
7940;BME280;4015;48.888;9.226;2024-03-08T07:06:23;156010.09;;;3.02;84.13
7940;BME280;4015;48.888;9.226;2024-03-08T07:08:48;156026.66;;;3.08;83.53
7940;BME280;4015;48.888;9.226;2024-03-08T07:11:14;156046.97;;;3.16;83.13
7940;BME280;4015;48.888;9.226;2024-03-08T07:13:44;156055.84;;;3.20;82.71
7940;BME280;4015;48.888;9.226;2024-03-08T07:16:10;156072.38;;;3.27;83.26
7940;BME280;4015;48.888;9.226;2024-03-08T07:18:37;156057.13;;;3.20;82.94
7940;BME280;4015;48.888;9.226;2024-03-08T07:21:05;156080.03;;;3.30;82.26
7940;BME280;4015;48.888;9.226;2024-03-08T07:23:30;156100.34;;;3.38;82.83
7940;BME280;4015;48.888;9.226;2024-03-08T07:26:20;156116.88;;;3.44;82.32
7940;BME280;4015;48.888;9.226;2024-03-08T07:28:45;156130.84;;;3.50;83.28
7940;BME280;4015;48.888;9.226;2024-03-08T07:31:10;156122.00;;;3.46;81.63
7940;BME280;4015;48.888;9.226;2024-03-08T07:33:48;156165.19;;;3.64;82.25
7940;BME280;4015;48.888;9.226;2024-03-08T07:36:15;156171.56;;;3.66;81.44
7940;BME280;4015;48.888;9.226;2024-03-08T07:38:41;156161.38;;;3.62;81.71
7940;BME280;4015;48.888;9.226;2024-03-08T07:41:06;156184.28;;;3.71;82.28
7940;BME280;4015;48.888;9.226;2024-03-08T07:43:31;156203.34;;;3.79;82.74
7940;BME280;4015;48.888;9.226;2024-03-08T07:45:58;156195.69;;;3.76;82.25
7940;BME280;4015;48.888;9.226;2024-03-08T07:48:23;156209.69;;;3.82;82.15
7940;BME280;4015;48.888;9.226;2024-03-08T07:50:48;156235.13;;;3.92;82.29
7940;BME280;4015;48.888;9.226;2024-03-08T07:53:15;156268.19;;;4.05;81.68
7940;BME280;4015;48.888;9.226;2024-03-08T07:55:41;156240.19;;;3.94;82.49
7940;BME280;4015;48.888;9.226;2024-03-08T07:58:08;156247.84;;;3.97;82.89
7940;BME280;4015;48.888;9.226;2024-03-08T08:00:36;156266.94;;;4.04;81.50
7940;BME280;4015;48.888;9.226;2024-03-08T08:03:02;156292.31;;;4.15;80.82
7940;BME280;4015;48.888;9.226;2024-03-08T08:05:28;156284.72;;;4.12;80.87
7940;BME280;4015;48.888;9.226;2024-03-08T08:07:53;156289.78;;;4.14;81.81
7940;BME280;4015;48.888;9.226;2024-03-08T08:10:19;156275.78;;;4.08;81.48
7940;BME280;4015;48.888;9.226;2024-03-08T08:12:50;156268.19;;;4.05;81.31
7940;BME280;4015;48.888;9.226;2024-03-08T08:15:16;156273.25;;;4.07;81.44
7940;BME280;4015;48.888;9.226;2024-03-08T08:17:43;156280.91;;;4.10;81.61
7940;BME280;4015;48.888;9.226;2024-03-08T08:20:10;156264.38;;;4.03;81.33
7940;BME280;4015;48.888;9.226;2024-03-08T08:22:37;156306.31;;;4.20;81.64
7940;BME280;4015;48.888;9.226;2024-03-08T08:25:03;156313.97;;;4.23;81.67
7940;BME280;4015;48.888;9.226;2024-03-08T08:27:29;156355.97;;;4.40;81.38
7940;BME280;4015;48.888;9.226;2024-03-08T08:29:54;156354.66;;;4.40;79.53
7940;BME280;4015;48.888;9.226;2024-03-08T08:32:21;156319.06;;;4.25;79.14
7940;BME280;4015;48.888;9.226;2024-03-08T08:34:46;156327.97;;;4.29;80.14
7940;BME280;4015;48.888;9.226;2024-03-08T08:37:12;156354.66;;;4.40;80.47
7940;BME280;4015;48.888;9.226;2024-03-08T08:39:37;156378.84;;;4.49;80.09
7940;BME280;4015;48.888;9.226;2024-03-08T08:42:03;156391.56;;;4.54;79.58
7940;BME280;4015;48.888;9.226;2024-03-08T08:44:29;156382.66;;;4.51;79.32
7940;BME280;4015;48.888;9.226;2024-03-08T08:46:54;156404.31;;;4.59;80.48
7940;BME280;4015;48.888;9.226;2024-03-08T08:49:19;156439.94;;;4.74;80.04
7940;BME280;4015;48.888;9.226;2024-03-08T08:51:49;156446.25;;;4.76;80.50
7940;BME280;4015;48.888;9.226;2024-03-08T08:54:15;156479.34;;;4.90;78.94
7940;BME280;4015;48.888;9.226;2024-03-08T08:56:42;156434.84;;;4.72;78.07
7940;BME280;4015;48.888;9.226;2024-03-08T08:59:09;156420.84;;;4.66;78.06
7940;BME280;4015;48.888;9.226;2024-03-08T09:01:34;156413.19;;;4.63;79.47
7940;BME280;4015;48.888;9.226;2024-03-08T09:04:00;156439.94;;;4.74;79.63
7940;BME280;4015;48.888;9.226;2024-03-08T09:06:25;156429.72;;;4.70;79.09
7940;BME280;4015;48.888;9.226;2024-03-08T09:08:51;156441.19;;;4.74;78.01
7940;BME280;4015;48.888;9.226;2024-03-08T09:11:16;156433.53;;;4.71;79.13
7940;BME280;4015;48.888;9.226;2024-03-08T09:13:44;156436.13;;;4.72;78.62
7940;BME280;4015;48.888;9.226;2024-03-08T09:16:10;156462.81;;;4.83;78.40
7940;BME280;4015;48.888;9.226;2024-03-08T09:18:36;156492.06;;;4.95;78.98
7940;BME280;4015;48.888;9.226;2024-03-08T09:21:01;156540.44;;;5.14;77.79
7940;BME280;4015;48.888;9.226;2024-03-08T09:23:26;156508.63;;;5.01;77.32
7940;BME280;4015;48.888;9.226;2024-03-08T09:25:56;156498.47;;;4.97;76.75
7940;BME280;4015;48.888;9.226;2024-03-08T09:28:23;156451.38;;;4.78;77.69
7940;BME280;4015;48.888;9.226;2024-03-08T09:30:48;156422.13;;;4.67;79.23
7940;BME280;4015;48.888;9.226;2024-03-08T09:33:14;156408.13;;;4.61;77.91
7940;BME280;4015;48.888;9.226;2024-03-08T09:35:44;156480.63;;;4.90;77.42
7940;BME280;4015;48.888;9.226;2024-03-08T09:38:12;156530.28;;;5.10;77.84
7940;BME280;4015;48.888;9.226;2024-03-08T09:40:38;156560.84;;;5.22;77.93
7940;BME280;4015;48.888;9.226;2024-03-08T09:43:04;156558.25;;;5.21;76.93
7940;BME280;4015;48.888;9.226;2024-03-08T09:45:31;156559.56;;;5.22;78.22
7940;BME280;4015;48.888;9.226;2024-03-08T09:48:01;156530.28;;;5.10;78.44
7940;BME280;4015;48.888;9.226;2024-03-08T09:50:26;156632.09;;;5.51;77.51
7940;BME280;4015;48.888;9.226;2024-03-08T09:52:55;156644.84;;;5.56;77.21
7940;BME280;4015;48.888;9.226;2024-03-08T09:55:22;156633.34;;;5.51;76.22
7940;BME280;4015;48.888;9.226;2024-03-08T09:57:51;156679.19;;;5.69;75.97
7940;BME280;4015;48.888;9.226;2024-03-08T10:00:39;156684.28;;;5.72;76.04
7940;BME280;4015;48.888;9.226;2024-03-08T10:03:04;156684.28;;;5.72;74.92
7940;BME280;4015;48.888;9.226;2024-03-08T10:05:30;156667.72;;;5.65;75.76
7940;BME280;4015;48.888;9.226;2024-03-08T10:07:58;156722.50;;;5.87;76.41
7940;BME280;4015;48.888;9.226;2024-03-08T10:10:23;156719.97;;;5.86;74.52
7940;BME280;4015;48.888;9.226;2024-03-08T10:12:49;156708.47;;;5.81;74.69
7940;BME280;4015;48.888;9.226;2024-03-08T10:15:16;156709.75;;;5.82;74.75
7940;BME280;4015;48.888;9.226;2024-03-08T10:17:42;156721.22;;;5.86;74.31
7940;BME280;4015;48.888;9.226;2024-03-08T10:20:18;156745.44;;;5.96;75.09
7940;BME280;4015;48.888;9.226;2024-03-08T10:22:44;156717.41;;;5.85;74.65
7940;BME280;4015;48.888;9.226;2024-03-08T10:25:11;156718.69;;;5.85;73.54
7940;BME280;4015;48.888;9.226;2024-03-08T10:27:38;156768.41;;;6.05;74.91
7940;BME280;4015;48.888;9.226;2024-03-08T10:30:06;156790.03;;;6.14;73.94
7940;BME280;4015;48.888;9.226;2024-03-08T10:32:31;156764.59;;;6.04;72.80
7940;BME280;4015;48.888;9.226;2024-03-08T10:34:57;156787.50;;;6.13;72.77
7940;BME280;4015;48.888;9.226;2024-03-08T10:37:22;156763.28;;;6.03;73.59
7940;BME280;4015;48.888;9.226;2024-03-08T10:40:02;156788.75;;;6.13;73.93
7940;BME280;4015;48.888;9.226;2024-03-08T10:43:00;156840.97;;;6.34;72.80
7940;BME280;4015;48.888;9.226;2024-03-08T10:45:37;156904.66;;;6.60;72.58
7940;BME280;4015;48.888;9.226;2024-03-08T10:48:28;156914.88;;;6.64;71.93
7940;BME280;4015;48.888;9.226;2024-03-08T10:50:59;156937.81;;;6.73;71.37
7940;BME280;4015;48.888;9.226;2024-03-08T10:53:27;156958.19;;;6.81;71.78
7940;BME280;4015;48.888;9.226;2024-03-08T10:55:56;156964.56;;;6.84;70.97
7940;BME280;4015;48.888;9.226;2024-03-08T10:58:24;157058.84;;;7.21;71.52
7940;BME280;4015;48.888;9.226;2024-03-08T11:00:53;157106.00;;;7.40;70.38
7940;BME280;4015;48.888;9.226;2024-03-08T11:03:49;157123.84;;;7.47;69.95
7940;BME280;4015;48.888;9.226;2024-03-08T11:09:45;157266.66;;;8.04;69.07
7940;BME280;4015;48.888;9.226;2024-03-08T11:11:52;157511.66;;;9.02;64.79
7940;BME280;4015;48.888;9.226;2024-03-08T11:14:42;157825.75;;;10.27;61.30
7940;BME280;4015;48.888;9.226;2024-03-08T11:17:08;157938.13;;;10.72;61.09
7940;BME280;4015;48.888;9.226;2024-03-08T11:19:33;157855.13;;;10.39;61.92
7940;BME280;4015;48.888;9.226;2024-03-08T11:22:03;157883.25;;;10.50;61.06
7940;BME280;4015;48.888;9.226;2024-03-08T11:24:37;157795.03;;;10.15;61.27
7940;BME280;4015;48.888;9.226;2024-03-08T11:27:05;157950.94;;;10.77;60.32
7940;BME280;4015;48.888;9.226;2024-03-08T11:32:14;158062.09;;;11.22;58.27
7940;BME280;4015;48.888;9.226;2024-03-08T11:34:41;158273.03;;;12.06;58.12
7940;BME280;4015;48.888;9.226;2024-03-08T11:37:15;158485.34;;;12.90;56.16
7940;BME280;4015;48.888;9.226;2024-03-08T11:39:48;158647.88;;;13.55;54.19
7940;BME280;4015;48.888;9.226;2024-03-08T11:42:14;158900.13;;;14.55;52.59
7940;BME280;4015;48.888;9.226;2024-03-08T11:44:45;158870.63;;;14.44;50.87
7940;BME280;4015;48.888;9.226;2024-03-08T11:47:11;158971.84;;;14.84;52.00
7940;BME280;4015;48.888;9.226;2024-03-08T11:49:37;158928.31;;;14.67;50.85
7940;BME280;4015;48.888;9.226;2024-03-08T11:52:04;158932.13;;;14.68;50.13
7940;BME280;4015;48.888;9.226;2024-03-08T11:54:29;158906.50;;;14.58;50.18
7940;BME280;4015;48.888;9.226;2024-03-08T11:56:56;159029.47;;;15.07;49.94
7940;BME280;4015;48.888;9.226;2024-03-08T11:59:28;159058.94;;;15.19;50.69
7940;BME280;4015;48.888;9.226;2024-03-08T12:02:02;159140.91;;;15.51;50.21
7940;BME280;4015;48.888;9.226;2024-03-08T12:04:28;159055.09;;;15.17;48.86
7940;BME280;4015;48.888;9.226;2024-03-08T12:06:54;159124.25;;;15.45;47.82
7940;BME280;4015;48.888;9.226;2024-03-08T12:09:19;159005.16;;;14.97;50.36
7940;BME280;4015;48.888;9.226;2024-03-08T12:11:48;159253.72;;;15.96;48.22
7940;BME280;4015;48.888;9.226;2024-03-08T12:14:14;159503.78;;;16.95;45.82
7940;BME280;4015;48.888;9.226;2024-03-08T12:16:39;159279.38;;;16.06;47.19
7940;BME280;4015;48.888;9.226;2024-03-08T12:19:05;159334.53;;;16.28;49.08
7940;BME280;4015;48.888;9.226;2024-03-08T12:21:31;159234.50;;;15.88;47.73
7940;BME280;4015;48.888;9.226;2024-03-08T12:24:08;159516.59;;;17.01;47.71
7940;BME280;4015;48.888;9.226;2024-03-08T12:26:35;159420.38;;;16.62;45.89
7940;BME280;4015;48.888;9.226;2024-03-08T12:29:26;159523.00;;;17.03;44.95
7940;BME280;4015;48.888;9.226;2024-03-08T12:31:54;159682.09;;;17.66;45.18
7940;BME280;4015;48.888;9.226;2024-03-08T12:34:20;159608.94;;;17.37;44.90
7940;BME280;4015;48.888;9.226;2024-03-08T12:36:50;159535.81;;;17.08;44.90
7940;BME280;4015;48.888;9.226;2024-03-08T12:39:18;159637.19;;;17.48;45.74
7940;BME280;4015;48.888;9.226;2024-03-08T12:41:49;159578.16;;;17.25;45.18
7940;BME280;4015;48.888;9.226;2024-03-08T12:44:17;159580.72;;;17.26;44.57
7940;BME280;4015;48.888;9.226;2024-03-08T12:46:44;159561.50;;;17.18;45.03
7940;BME280;4015;48.888;9.226;2024-03-08T12:49:10;159466.59;;;16.81;44.93
7940;BME280;4015;48.888;9.226;2024-03-08T12:51:37;159398.63;;;16.54;46.00
7940;BME280;4015;48.888;9.226;2024-03-08T12:54:04;159475.56;;;16.84;46.74
7940;BME280;4015;48.888;9.226;2024-03-08T12:56:33;159501.22;;;16.94;46.28
7940;BME280;4015;48.888;9.226;2024-03-08T12:59:02;159507.59;;;16.97;46.93
7940;BME280;4015;48.888;9.226;2024-03-08T13:01:28;159493.53;;;16.91;45.22
7940;BME280;4015;48.888;9.226;2024-03-08T13:03:54;159438.34;;;16.69;46.86
7940;BME280;4015;48.888;9.226;2024-03-08T13:06:20;159674.38;;;17.63;44.68
7940;BME280;4015;48.888;9.226;2024-03-08T13:08:52;159898.97;;;18.52;43.84
7940;BME280;4015;48.888;9.226;2024-03-08T13:11:18;159832.22;;;18.26;42.58
7940;BME280;4015;48.888;9.226;2024-03-08T13:13:44;159759.06;;;17.97;43.45
7940;BME280;4015;48.888;9.226;2024-03-08T13:16:10;159765.53;;;17.99;44.11
7940;BME280;4015;48.888;9.226;2024-03-08T13:18:37;159856.63;;;18.36;45.38
7940;BME280;4015;48.888;9.226;2024-03-08T13:21:03;159901.53;;;18.53;43.95
7940;BME280;4015;48.888;9.226;2024-03-08T13:23:32;159978.59;;;18.84;43.45
7940;BME280;4015;48.888;9.226;2024-03-08T13:25:58;159972.19;;;18.81;43.28